createdAt,value
2023-10-23T00:01:52.307Z,99894.95
2023-10-23T00:04:23.525Z,99891.55
2023-10-23T00:06:54.642Z,99892.60
2023-10-23T00:09:25.833Z,99890.23
2023-10-23T00:11:56.879Z,99890.23
2023-10-23T00:14:27.897Z,99890.45
2023-10-23T00:16:59.135Z,99894.07
2023-10-23T00:19:30.320Z,99898.73
2023-10-23T00:22:01.317Z,99901.17
2023-10-23T00:24:32.291Z,99905.48
2023-10-23T00:27:03.311Z,99905.48
2023-10-23T00:29:34.298Z,99908.95
2023-10-23T00:32:05.648Z,99914.30
2023-10-23T00:34:37.760Z,99918.27
2023-10-23T00:37:09.173Z,99919.48
2023-10-23T00:39:40.169Z,99924.84
2023-10-23T00:42:11.211Z,99922.46
2023-10-23T00:44:42.137Z,99925.60
2023-10-23T00:47:14.159Z,99927.17
2023-10-23T00:49:47.027Z,99930.77
2023-10-23T00:52:18.560Z,99933.02
2023-10-23T00:54:49.930Z,99937.33
2023-10-23T00:57:21.939Z,99939.56
2023-10-23T00:59:53.552Z,99941.65
2023-10-23T01:02:25.513Z,99940.44
2023-10-23T01:04:56.727Z,99944.56
2023-10-23T01:07:27.764Z,99948.34
2023-10-23T01:09:58.885Z,99947.65
2023-10-23T01:12:30.102Z,99948.35
2023-10-23T01:15:01.141Z,99952.98
2023-10-23T01:17:33.229Z,99959.50
2023-10-23T01:20:04.763Z,99963.59
2023-10-23T01:22:35.773Z,99968.75
2023-10-23T01:25:14.635Z,99968.56
2023-10-23T01:27:46.005Z,99972.34
2023-10-23T01:30:17.258Z,99974.59
2023-10-23T01:32:48.744Z,99981.44
2023-10-23T01:35:19.774Z,99987.95
2023-10-23T01:37:51.020Z,99991.21
2023-10-23T01:40:22.404Z,99989.68
2023-10-23T01:42:53.953Z,99991.40
2023-10-23T01:45:25.209Z,99990.37
2023-10-23T01:47:56.417Z,99988.64
2023-10-23T01:50:27.497Z,99992.08
2023-10-23T01:52:58.534Z,99990.92
2023-10-23T01:55:29.787Z,99992.12
2023-10-23T01:58:01.508Z,99999.00
2023-10-23T02:00:33.747Z,100001.72
2023-10-23T02:03:05.830Z,100005.86
2023-10-23T02:05:37.201Z,100004.33
2023-10-23T02:08:08.683Z,100001.27
2023-10-23T02:10:39.732Z,100005.92
2023-10-23T02:13:12.545Z,100012.98
2023-10-23T02:15:43.623Z,100017.83
2023-10-23T02:18:15.199Z,100023.17
2023-10-23T02:20:46.312Z,100022.73
2023-10-23T02:23:19.257Z,100025.81
2023-10-23T02:25:50.633Z,100022.27
2023-10-23T02:28:21.713Z,100020.75
2023-10-23T02:30:52.889Z,100021.09
2023-10-23T02:33:24.083Z,100022.50
2023-10-23T02:35:55.105Z,100018.54
2023-10-23T02:38:26.098Z,100020.60
2023-10-23T02:40:57.664Z,100024.55
2023-10-23T02:43:28.854Z,100024.05
2023-10-23T02:46:03.985Z,100030.91
2023-10-23T02:48:35.950Z,100031.27
2023-10-23T02:51:06.942Z,100033.16
2023-10-23T02:53:37.988Z,100037.46
2023-10-23T02:56:13.662Z,100045.35
2023-10-23T02:58:45.521Z,100048.45
2023-10-23T03:01:21.959Z,100047.98
2023-10-23T03:03:53.853Z,100045.96
2023-10-23T03:06:24.993Z,100049.77
2023-10-23T03:08:56.639Z,100048.58
2023-10-23T03:11:27.689Z,100050.49
2023-10-23T03:13:58.639Z,100051.52
2023-10-23T03:16:30.854Z,100054.30
2023-10-23T03:19:02.054Z,100053.98
2023-10-23T03:21:33.727Z,100049.89
2023-10-23T03:24:04.894Z,100054.17
2023-10-23T03:26:35.972Z,100055.23
2023-10-23T03:29:06.998Z,100056.96
2023-10-23T03:31:38.186Z,100056.97
2023-10-23T03:34:09.921Z,100060.91
2023-10-23T03:36:40.972Z,100061.63
2023-10-23T03:39:12.184Z,100063.21
2023-10-23T03:41:43.745Z,100057.03
2023-10-23T03:44:15.157Z,100060.14
2023-10-23T03:46:46.447Z,100062.55
2023-10-23T03:49:17.596Z,100063.41
2023-10-23T03:51:48.578Z,100058.10
2023-10-23T03:54:19.616Z,100058.45
2023-10-23T03:56:50.686Z,100067.71
2023-10-23T03:59:21.726Z,100067.91
2023-10-23T04:01:53.676Z,100071.01
2023-10-23T04:04:24.909Z,100069.13
2023-10-23T04:06:56.072Z,100071.04
2023-10-23T04:09:30.709Z,100070.36
2023-10-23T04:12:02.004Z,100066.77
2023-10-23T04:14:33.098Z,100067.48
2023-10-23T04:17:05.640Z,100065.07
2023-10-23T04:19:36.851Z,100070.20
2023-10-23T04:22:08.305Z,100072.27
2023-10-23T04:24:39.553Z,100068.16
2023-10-23T04:27:10.552Z,100065.40
2023-10-23T04:29:41.823Z,100067.30
2023-10-23T04:32:12.854Z,100068.66
2023-10-23T04:34:43.966Z,100067.45
2023-10-23T04:37:14.950Z,100067.63
2023-10-23T04:39:48.397Z,100064.55
2023-10-23T04:42:19.736Z,100069.16
2023-10-23T04:44:51.802Z,100069.16
2023-10-23T04:47:22.758Z,100070.36
2023-10-23T04:49:54.242Z,100076.02
2023-10-23T04:52:25.758Z,100072.58
2023-10-23T04:54:57.554Z,100078.23
2023-10-23T04:57:28.712Z,100078.75
2023-10-23T05:00:02.509Z,100086.80
2023-10-23T05:02:34.452Z,100096.40
2023-10-23T05:05:07.614Z,100100.83
2023-10-23T05:07:38.896Z,100105.83
2023-10-23T05:10:13.242Z,100104.80
2023-10-23T05:12:48.429Z,100108.95
2023-10-23T05:15:20.628Z,100114.25
2023-10-23T05:17:51.954Z,100115.78
2023-10-23T05:20:23.356Z,100118.02
2023-10-23T05:22:54.887Z,100125.39
2023-10-23T05:25:26.962Z,100127.80
2023-10-23T05:27:58.533Z,100129.04
2023-10-23T05:30:29.672Z,100136.05
2023-10-23T05:33:01.061Z,100144.81
2023-10-23T05:35:32.125Z,100148.94
2023-10-23T05:38:03.113Z,100155.78
2023-10-23T05:40:34.216Z,100161.95
2023-10-23T05:43:05.422Z,100158.71
2023-10-23T05:45:40.005Z,100163.84
2023-10-23T05:48:11.580Z,100163.86
2023-10-23T05:50:42.491Z,100164.89
2023-10-23T05:53:13.463Z,100167.27
2023-10-23T05:55:44.646Z,100171.02
2023-10-23T05:58:15.813Z,100174.60
2023-10-23T06:00:46.876Z,100182.27
2023-10-23T06:03:18.509Z,100191.98
2023-10-23T06:05:50.196Z,100198.25
2023-10-23T06:08:22.197Z,100202.66
2023-10-23T06:10:54.816Z,100205.18
2023-10-23T06:13:25.894Z,100212.70
2023-10-23T06:16:03.811Z,100214.54
2023-10-23T06:18:36.021Z,100221.54
2023-10-23T06:21:08.672Z,100227.34
2023-10-23T06:23:41.370Z,100226.80
2023-10-23T06:26:12.491Z,100227.48
2023-10-23T06:28:43.488Z,100231.56
2023-10-23T06:31:14.982Z,100227.41
2023-10-23T06:33:45.959Z,100225.98
2023-10-23T06:36:16.953Z,100227.95
2023-10-23T06:38:47.909Z,100231.25
2023-10-23T06:41:18.926Z,100235.09
2023-10-23T06:43:50.126Z,100237.06
2023-10-23T06:46:21.701Z,100242.30
2023-10-23T06:48:52.924Z,100240.53
2023-10-23T06:51:37.761Z,100242.22
2023-10-23T06:54:09.496Z,100241.11
2023-10-23T06:56:40.934Z,100248.08
2023-10-23T06:59:12.050Z,100254.48
2023-10-23T07:01:45.235Z,100251.77
2023-10-23T07:04:16.999Z,100252.00
2023-10-23T07:06:48.161Z,100252.23
2023-10-23T07:09:19.466Z,100254.11
2023-10-23T07:11:52.500Z,100254.98
2023-10-23T07:14:23.709Z,100259.07
2023-10-23T07:16:54.757Z,100259.27
2023-10-23T07:19:25.921Z,100260.95
2023-10-23T07:21:57.301Z,100261.45
2023-10-23T07:24:28.548Z,100265.27
2023-10-23T07:27:00.874Z,100271.15
2023-10-23T07:29:33.299Z,100274.77
2023-10-23T07:32:05.061Z,100274.94
2023-10-23T07:34:36.303Z,100278.05
2023-10-23T07:37:09.830Z,100280.48
2023-10-23T07:39:47.755Z,100278.95
2023-10-23T07:42:19.156Z,100279.48
2023-10-23T07:44:50.474Z,100283.14
2023-10-23T07:47:21.800Z,100287.80
2023-10-23T07:49:53.109Z,100289.67
2023-10-23T07:52:24.222Z,100290.14
2023-10-23T07:54:55.792Z,100287.88
2023-10-23T07:57:27.126Z,100287.96
2023-10-23T07:59:58.427Z,100288.36
2023-10-23T08:02:29.864Z,100292.48
2023-10-23T08:05:01.310Z,100295.05
2023-10-23T08:07:32.560Z,100298.54
2023-10-23T08:10:05.435Z,100301.52
2023-10-23T08:12:36.709Z,100304.52
2023-10-23T08:15:08.920Z,100303.38
2023-10-23T08:17:42.796Z,100303.66
2023-10-23T08:20:15.033Z,100302.91
2023-10-23T08:22:46.217Z,100300.59
2023-10-23T08:25:18.035Z,100302.30
2023-10-23T08:27:49.625Z,100304.73
2023-10-23T08:30:21.090Z,100309.27
2023-10-23T08:32:55.828Z,100304.17
2023-10-23T08:35:29.437Z,100308.48
2023-10-23T08:38:00.818Z,100305.25
2023-10-23T08:40:33.050Z,100305.52
2023-10-23T08:43:05.002Z,100296.27
2023-10-23T08:45:36.543Z,100303.16
2023-10-23T08:48:07.924Z,100303.07
2023-10-23T08:50:39.900Z,100306.52
2023-10-23T08:53:13.102Z,100303.72
2023-10-23T08:55:45.915Z,100303.02
2023-10-23T08:58:18.505Z,100306.06
2023-10-23T09:00:50.002Z,100310.41
2023-10-23T09:04:02.135Z,100316.42
2023-10-23T09:06:18.213Z,100313.56
2023-10-23T09:08:49.410Z,100313.25
2023-10-23T09:11:21.878Z,100313.52
2023-10-23T09:13:53.003Z,100315.67
2023-10-23T09:16:24.526Z,100313.06
2023-10-23T09:18:56.418Z,100312.77
2023-10-23T09:21:27.900Z,100313.90
2023-10-23T09:24:01.882Z,100316.56
2023-10-23T09:26:33.130Z,100321.41
2023-10-23T09:29:04.797Z,100321.50
2023-10-23T09:31:37.164Z,100327.91
2023-10-23T09:34:09.555Z,100331.29
2023-10-23T09:36:42.888Z,100331.98
2023-10-23T09:39:14.206Z,100334.33
2023-10-23T09:41:47.328Z,100334.61
2023-10-23T09:44:19.725Z,100336.47
2023-10-23T09:46:53.435Z,100334.48
2023-10-23T09:49:25.513Z,100334.60
2023-10-23T09:52:01.665Z,100332.13
2023-10-23T09:54:34.999Z,100331.23
2023-10-23T09:57:07.603Z,100330.55
2023-10-23T09:59:46.322Z,100325.52
2023-10-23T10:02:20.022Z,100325.33
2023-10-23T10:05:05.892Z,100324.05
2023-10-23T10:07:43.857Z,100322.61
2023-10-23T10:10:15.638Z,100320.18
2023-10-23T10:12:48.610Z,100323.92
2023-10-23T10:15:20.172Z,100323.91
2023-10-23T10:17:53.183Z,100328.06
2023-10-23T10:20:26.094Z,100325.84
2023-10-23T10:23:06.968Z,100324.88
2023-10-23T10:25:39.989Z,100325.29
2023-10-23T10:28:12.430Z,100323.94
2023-10-23T10:30:47.195Z,100328.58
2023-10-23T10:34:25.068Z,100328.17
2023-10-23T10:36:44.995Z,100325.15
2023-10-23T10:39:10.102Z,100324.01
2023-10-23T10:41:42.375Z,100323.21
2023-10-23T10:44:13.973Z,100324.64
2023-10-23T10:46:48.884Z,100318.98
2023-10-23T10:49:23.822Z,100317.05
2023-10-23T10:51:56.294Z,100318.41
2023-10-23T10:54:36.023Z,100321.14
2023-10-23T10:57:15.525Z,100318.67
2023-10-23T10:59:46.934Z,100320.00
2023-10-23T11:02:18.852Z,100318.27
2023-10-23T11:04:49.969Z,100318.58
2023-10-23T11:07:24.316Z,100316.17
2023-10-23T11:09:56.118Z,100314.09
2023-10-23T11:12:27.645Z,100313.40
2023-10-23T11:14:58.710Z,100308.78
2023-10-23T11:17:31.271Z,100303.63
2023-10-23T11:20:07.292Z,100307.95
2023-10-23T11:22:43.044Z,100304.70
2023-10-23T11:25:14.973Z,100303.69
2023-10-23T11:27:51.810Z,100307.31
2023-10-23T11:30:26.140Z,100308.85
2023-10-23T11:32:58.261Z,100312.64
2023-10-23T11:35:36.568Z,100310.08
2023-10-23T11:38:07.741Z,100311.64
2023-10-23T11:40:39.122Z,100314.20
2023-10-23T11:43:13.394Z,100315.38
2023-10-23T11:45:47.283Z,100314.27
2023-10-23T11:48:18.849Z,100310.58
2023-10-23T11:50:50.194Z,100311.25
2023-10-23T11:53:21.779Z,100312.66
2023-10-23T11:55:57.251Z,100312.98
2023-10-23T11:58:31.199Z,100309.50
2023-10-23T12:01:04.368Z,100311.53
2023-10-23T12:03:35.577Z,100312.88
2023-10-23T12:06:07.693Z,100317.11
2023-10-23T12:08:38.703Z,100317.75
2023-10-23T12:11:09.757Z,100321.48
2023-10-23T12:13:41.368Z,100318.35
2023-10-23T12:16:14.267Z,100317.98
2023-10-23T12:18:46.429Z,100318.29
2023-10-23T12:21:18.081Z,100319.45
2023-10-23T12:23:49.467Z,100317.40
2023-10-23T12:26:22.611Z,100317.86
2023-10-23T12:28:54.042Z,100321.62
2023-10-23T12:31:28.132Z,100324.69
2023-10-23T12:34:03.022Z,100321.38
2023-10-23T12:36:40.383Z,100321.66
2023-10-23T12:39:13.239Z,100321.10
2023-10-23T12:41:44.448Z,100319.71
2023-10-23T12:44:15.877Z,100319.58
2023-10-23T12:46:51.452Z,100318.55
2023-10-23T12:49:23.440Z,100315.29
2023-10-23T12:51:55.258Z,100317.04
2023-10-23T12:54:26.803Z,100320.34
2023-10-23T12:56:59.636Z,100321.47
2023-10-23T12:59:31.120Z,100324.48
2023-10-23T13:02:03.164Z,100320.83
2023-10-23T13:04:35.153Z,100324.70
2023-10-23T13:07:07.033Z,100325.68
2023-10-23T13:09:39.098Z,100325.44
2023-10-23T13:12:13.790Z,100321.22
2023-10-23T13:14:44.993Z,100326.00
2023-10-23T13:17:16.425Z,100327.84
2023-10-23T13:19:47.716Z,100327.08
2023-10-23T13:22:21.187Z,100328.70
2023-10-23T13:24:52.686Z,100327.05
2023-10-23T13:27:24.036Z,100326.74
2023-10-23T13:29:55.429Z,100325.27
2023-10-23T13:32:31.404Z,100325.68
2023-10-23T13:35:14.271Z,100325.44
2023-10-23T13:37:46.297Z,100327.58
2023-10-23T13:40:18.239Z,100328.89
2023-10-23T13:42:52.622Z,100331.02
2023-10-23T13:45:26.725Z,100333.86
2023-10-23T13:47:58.528Z,100333.27
2023-10-23T13:50:30.373Z,100334.08
2023-10-23T13:53:01.892Z,100334.40
2023-10-23T13:55:33.169Z,100330.54
2023-10-23T13:58:05.185Z,100332.50
2023-10-23T14:00:36.908Z,100332.77
2023-10-23T14:03:09.394Z,100331.53
2023-10-23T14:05:43.133Z,100332.85
2023-10-23T14:08:19.441Z,100330.02
2023-10-23T14:11:57.725Z,100331.51
2023-10-23T14:13:56.792Z,100322.98
2023-10-23T14:16:28.872Z,100322.00
2023-10-23T14:19:00.513Z,100317.95
2023-10-23T14:21:32.001Z,100320.42
2023-10-23T14:24:03.201Z,100320.15
2023-10-23T14:26:35.164Z,100323.17
2023-10-23T14:29:08.759Z,100318.91
2023-10-23T14:31:40.343Z,100316.77
2023-10-23T14:34:11.980Z,100316.34
2023-10-23T14:36:43.319Z,100312.44
2023-10-23T14:39:18.102Z,100313.03
2023-10-23T14:41:50.300Z,100310.85
2023-10-23T14:44:21.494Z,100306.76
2023-10-23T14:46:53.868Z,100305.94
2023-10-23T14:49:27.936Z,100306.33
2023-10-23T14:51:59.568Z,100299.14
2023-10-23T14:54:31.099Z,100301.39
2023-10-23T14:57:04.003Z,100303.64
2023-10-23T14:59:39.652Z,100305.38
2023-10-23T15:02:11.668Z,100302.14
2023-10-23T15:04:43.180Z,100299.95
2023-10-23T15:07:14.704Z,100295.02
2023-10-23T15:09:48.581Z,100295.93
2023-10-23T15:12:21.393Z,100295.48
2023-10-23T15:14:52.593Z,100294.38
2023-10-23T15:17:24.466Z,100288.63
2023-10-23T15:19:59.336Z,100288.22
2023-10-23T15:22:32.457Z,100286.80
2023-10-23T15:25:06.119Z,100288.13
2023-10-23T15:27:37.806Z,100291.68
2023-10-23T15:30:13.794Z,100293.86
2023-10-23T15:32:46.788Z,100300.00
2023-10-23T15:35:19.000Z,100302.90
2023-10-23T15:37:50.679Z,100303.04
2023-10-23T15:40:24.049Z,100302.28
2023-10-23T15:42:56.475Z,100307.89
2023-10-23T15:45:38.213Z,100311.95
2023-10-23T15:48:10.401Z,100309.66
2023-10-23T15:50:42.210Z,100314.06
2023-10-23T15:53:17.551Z,100322.42
2023-10-23T15:55:52.477Z,100324.77
2023-10-23T15:58:25.708Z,100322.46
2023-10-23T16:00:59.202Z,100325.02
2023-10-23T16:03:30.381Z,100320.68
2023-10-23T16:06:09.856Z,100323.20
2023-10-23T16:08:41.980Z,100319.91
2023-10-23T16:11:14.190Z,100315.92
2023-10-23T16:13:51.434Z,100320.50
2023-10-23T16:16:22.752Z,100317.00
2023-10-23T16:18:54.020Z,100321.36
2023-10-23T16:21:26.339Z,100323.84
2023-10-23T16:23:57.475Z,100322.20
2023-10-23T16:26:28.576Z,100328.81
2023-10-23T16:29:00.940Z,100332.13
2023-10-23T16:31:32.245Z,100329.61
2023-10-23T16:34:05.359Z,100328.29
2023-10-23T16:36:37.058Z,100330.21
2023-10-23T16:39:13.151Z,100333.20
2023-10-23T16:41:45.969Z,100334.28
2023-10-23T16:44:17.319Z,100331.08
2023-10-23T16:46:54.334Z,100331.30
2023-10-23T16:49:25.781Z,100328.95
2023-10-23T16:51:58.036Z,100327.48
2023-10-23T16:54:32.644Z,100324.27
2023-10-23T16:57:05.739Z,100323.96
2023-10-23T16:59:39.300Z,100324.34
2023-10-23T17:02:18.412Z,100323.17
2023-10-23T17:04:50.161Z,100322.34
2023-10-23T17:07:21.125Z,100323.24
2023-10-23T17:09:52.181Z,100322.41
2023-10-23T17:12:23.185Z,100325.01
2023-10-23T17:14:54.246Z,100321.27
2023-10-23T17:17:25.249Z,100322.85
2023-10-23T17:19:56.428Z,100320.64
2023-10-23T17:22:27.585Z,100321.18
2023-10-23T17:24:58.647Z,100316.90
2023-10-23T17:27:30.163Z,100317.94
2023-10-23T17:30:01.331Z,100315.55
2023-10-23T17:32:32.507Z,100316.56
2023-10-23T17:35:04.153Z,100311.75
2023-10-23T17:37:35.377Z,100311.41
2023-10-23T17:40:08.188Z,100307.77
2023-10-23T17:42:40.702Z,100312.19
2023-10-23T17:45:13.173Z,100307.88
2023-10-23T17:47:47.052Z,100309.05
2023-10-23T17:50:18.358Z,100310.73
2023-10-23T17:52:50.038Z,100310.15
2023-10-23T17:55:21.169Z,100307.37
2023-10-23T17:57:52.249Z,100305.27
2023-10-23T18:00:26.388Z,100307.83
2023-10-23T18:02:57.950Z,100312.62
2023-10-23T18:05:29.249Z,100311.10
2023-10-23T18:08:00.813Z,100315.06
2023-10-23T18:10:32.125Z,100316.64
2023-10-23T18:13:03.367Z,100315.64
2023-10-23T18:15:34.629Z,100314.80
2023-10-23T18:18:21.526Z,100316.55
2023-10-23T18:20:55.306Z,100317.09
2023-10-23T18:23:26.514Z,100314.04
2023-10-23T18:26:02.226Z,100315.44
2023-10-23T18:28:33.682Z,100320.29
2023-10-23T18:31:05.435Z,100317.08
2023-10-23T18:33:36.960Z,100316.61
2023-10-23T18:36:14.689Z,100317.99
2023-10-23T18:38:47.566Z,100316.84
2023-10-23T18:41:22.654Z,100310.53
2023-10-23T18:43:55.033Z,100303.54
2023-10-23T18:46:26.342Z,100304.06
2023-10-23T18:48:59.397Z,100306.15
2023-10-23T18:51:30.729Z,100305.82
2023-10-23T18:54:03.608Z,100308.07
2023-10-23T18:56:34.893Z,100308.61
2023-10-23T18:59:07.565Z,100304.70
2023-10-23T19:01:38.805Z,100304.39
2023-10-23T19:04:10.293Z,100307.69
2023-10-23T19:06:41.598Z,100310.10
2023-10-23T19:09:14.000Z,100311.49
2023-10-23T19:11:45.537Z,100312.02
2023-10-23T19:14:16.845Z,100310.67
2023-10-23T19:16:47.903Z,100306.95
2023-10-23T19:19:19.480Z,100306.80
2023-10-23T19:21:50.542Z,100308.02
2023-10-23T19:24:21.966Z,100310.45
2023-10-23T19:26:53.712Z,100307.41
2023-10-23T19:29:26.924Z,100305.23
2023-10-23T19:31:59.676Z,100305.08
2023-10-23T19:34:32.975Z,100303.39
2023-10-23T19:37:05.065Z,100307.16
2023-10-23T19:39:38.523Z,100305.99
2023-10-23T19:42:12.838Z,100300.56
2023-10-23T19:44:45.220Z,100299.58
2023-10-23T19:47:18.265Z,100294.65
2023-10-23T19:49:50.658Z,100292.46
2023-10-23T19:52:22.934Z,100291.29
2023-10-23T19:55:04.296Z,100289.23
2023-10-23T19:57:48.614Z,100292.14
2023-10-23T20:00:20.738Z,100290.61
2023-10-23T20:02:52.015Z,100293.73
2023-10-23T20:05:23.237Z,100295.30
2023-10-23T20:07:54.515Z,100291.73
2023-10-23T20:10:26.121Z,100288.16
2023-10-23T20:12:57.513Z,100287.16
2023-10-23T20:15:30.559Z,100287.17
2023-10-23T20:18:02.166Z,100289.75
2023-10-23T20:20:33.212Z,100292.69
2023-10-23T20:23:04.256Z,100291.86
2023-10-23T20:25:36.062Z,100292.23
2023-10-23T20:28:07.315Z,100288.66
2023-10-23T20:30:38.316Z,100287.15
2023-10-23T20:33:10.016Z,100287.48
2023-10-23T20:35:45.167Z,100287.14
2023-10-23T20:38:16.542Z,100286.64
2023-10-23T20:40:47.546Z,100290.90
2023-10-23T20:43:18.578Z,100291.93
2023-10-23T20:45:49.588Z,100291.43
2023-10-23T20:48:21.189Z,100288.86
2023-10-23T20:50:52.120Z,100288.88
2023-10-23T20:53:23.214Z,100286.84
2023-10-23T20:55:55.454Z,100282.05
2023-10-23T20:58:27.857Z,100281.71
2023-10-23T21:00:58.950Z,100282.91
2023-10-23T21:03:30.705Z,100284.95
2023-10-23T21:06:05.677Z,100282.56
2023-10-23T21:08:38.945Z,100280.55
2023-10-23T21:11:09.906Z,100282.29
2023-10-23T21:13:40.967Z,100279.40
2023-10-23T21:16:12.175Z,100279.42
2023-10-23T21:18:43.317Z,100281.19
2023-10-23T21:21:14.554Z,100280.89
2023-10-23T21:23:45.830Z,100279.91
2023-10-23T21:26:16.905Z,100280.46
2023-10-23T21:28:48.229Z,100277.95
2023-10-23T21:31:19.354Z,100280.71
2023-10-23T21:33:50.549Z,100281.77
2023-10-23T21:36:21.578Z,100277.00
2023-10-23T21:38:52.544Z,100273.59
2023-10-23T21:41:23.489Z,100272.56
2023-10-23T21:43:54.576Z,100267.95
2023-10-23T21:46:25.797Z,100268.98
2023-10-23T21:48:56.846Z,100271.52
2023-10-23T21:51:27.921Z,100270.84
2023-10-23T21:54:00.463Z,100269.82
2023-10-23T21:57:13.545Z,100270.86
2023-10-23T21:59:24.647Z,100270.35
2023-10-23T22:01:56.497Z,100268.48
2023-10-23T22:04:28.639Z,100273.63
2023-10-23T22:07:00.786Z,100276.20
2023-10-23T22:09:32.987Z,100277.92
2023-10-23T22:12:06.749Z,100276.40
2023-10-23T22:14:38.826Z,100274.53
2023-10-23T22:17:10.328Z,100276.59
2023-10-23T22:19:41.531Z,100279.34
2023-10-23T22:22:12.543Z,100279.66
2023-10-23T22:24:43.664Z,100278.46
2023-10-23T22:27:14.656Z,100282.23
2023-10-23T22:29:45.636Z,100285.30
2023-10-23T22:32:17.145Z,100287.88
2023-10-23T22:34:48.306Z,100287.17
2023-10-23T22:37:46.371Z,100283.41
2023-10-23T22:40:13.675Z,100283.42
2023-10-23T22:42:44.823Z,100283.42
2023-10-23T22:45:15.788Z,100280.86
2023-10-23T22:47:46.846Z,100279.66
2023-10-23T22:50:19.532Z,100281.54
2023-10-23T22:52:51.692Z,100283.44
2023-10-23T22:55:23.974Z,100287.71
2023-10-23T22:57:55.966Z,100289.92
2023-10-23T23:00:27.927Z,100287.03
2023-10-23T23:03:00.098Z,100286.84
2023-10-23T23:05:32.124Z,100285.98
2023-10-23T23:08:05.005Z,100285.48
2023-10-23T23:10:37.232Z,100280.00
2023-10-23T23:13:09.184Z,100276.41
2023-10-23T23:15:42.062Z,100278.29
2023-10-23T23:18:15.343Z,100274.37
2023-10-23T23:20:49.502Z,100272.64
2023-10-23T23:23:20.541Z,100266.82
2023-10-23T23:25:51.573Z,100268.86
2023-10-23T23:28:23.186Z,100273.13
2023-10-23T23:30:54.340Z,100268.54
2023-10-23T23:33:25.364Z,100268.05
2023-10-23T23:35:57.062Z,100268.40
2023-10-23T23:38:28.333Z,100267.41
2023-10-23T23:40:59.306Z,100265.06
2023-10-23T23:43:30.448Z,100262.02
2023-10-23T23:46:02.305Z,100263.42
2023-10-23T23:48:33.355Z,100260.38
2023-10-23T23:51:04.734Z,100260.55
2023-10-23T23:53:35.668Z,100255.78
2023-10-23T23:56:07.168Z,100252.20
2023-10-23T23:58:38.167Z,100249.65
